createdAt,value
2022-08-28T00:00:04.891Z,25.79
2022-08-28T00:00:14.910Z,25.79
2022-08-28T00:00:24.931Z,25.79
2022-08-28T00:00:34.949Z,25.80
2022-08-28T00:00:44.984Z,25.79
2022-08-28T00:00:55.001Z,25.77
2022-08-28T00:01:05.039Z,25.77
2022-08-28T00:01:15.070Z,25.77
2022-08-28T00:01:25.093Z,25.79
2022-08-28T00:01:35.112Z,25.79
2022-08-28T00:01:45.140Z,25.79
2022-08-28T00:01:55.172Z,25.79
2022-08-28T00:02:05.202Z,25.79
2022-08-28T00:02:15.235Z,25.79
2022-08-28T00:02:25.395Z,25.77
2022-08-28T00:02:35.457Z,25.79
2022-08-28T00:02:55.608Z,25.77
2022-08-28T00:03:05.844Z,25.75
2022-08-28T00:03:17.332Z,25.80
2022-08-28T00:03:25.823Z,25.77
2022-08-28T00:03:35.849Z,25.79
2022-08-28T00:03:55.893Z,25.77
2022-08-28T00:04:05.922Z,25.80
2022-08-28T00:04:16.024Z,25.75
2022-08-28T00:04:26.147Z,25.75
2022-08-28T00:04:36.230Z,25.77
2022-08-28T00:04:56.313Z,25.75
2022-08-28T00:05:06.417Z,25.75
2022-08-28T00:05:16.383Z,25.75
2022-08-28T00:05:26.413Z,25.77
2022-08-28T00:05:36.443Z,25.77
2022-08-28T00:05:56.464Z,25.77
2022-08-28T00:06:06.503Z,25.75
2022-08-28T00:06:16.541Z,25.77
2022-08-28T00:06:26.571Z,25.75
2022-08-28T00:06:36.592Z,25.75
2022-08-28T00:06:56.641Z,25.75
2022-08-28T00:07:06.673Z,25.75
2022-08-28T00:07:16.700Z,25.75
2022-08-28T00:07:26.724Z,25.77
2022-08-28T00:07:36.752Z,25.77
2022-08-28T00:07:56.783Z,25.72
2022-08-28T00:08:06.819Z,25.74
2022-08-28T00:08:16.854Z,25.72
2022-08-28T00:08:26.902Z,25.74
2022-08-28T00:08:36.934Z,25.74
2022-08-28T00:08:56.952Z,25.74
2022-08-28T00:09:06.982Z,25.75
2022-08-28T00:09:17.015Z,25.74
2022-08-28T00:09:27.040Z,25.75
2022-08-28T00:09:37.064Z,25.72
2022-08-28T00:09:57.101Z,25.75
2022-08-28T00:10:07.122Z,25.74
2022-08-28T00:10:17.153Z,25.74
2022-08-28T00:10:27.174Z,25.74
2022-08-28T00:10:37.204Z,25.72
2022-08-28T00:10:57.253Z,25.71
2022-08-28T00:11:07.304Z,25.74
2022-08-28T00:11:17.334Z,25.71
2022-08-28T00:11:27.353Z,25.75
2022-08-28T00:11:37.382Z,25.71
2022-08-28T00:11:57.549Z,25.72
2022-08-28T00:12:07.585Z,25.72
2022-08-28T00:12:17.613Z,25.72
2022-08-28T00:12:27.638Z,25.74
2022-08-28T00:12:37.665Z,25.74
2022-08-28T00:12:57.694Z,25.74
2022-08-28T00:13:07.744Z,25.74
2022-08-28T00:13:17.774Z,25.77
2022-08-28T00:13:27.797Z,25.75
2022-08-28T00:13:37.826Z,25.74
2022-08-28T00:13:57.986Z,25.72
2022-08-28T00:14:08.014Z,25.75
2022-08-28T00:14:18.044Z,25.74
2022-08-28T00:14:28.064Z,25.75
2022-08-28T00:14:38.092Z,25.74
2022-08-28T00:14:58.125Z,25.74
2022-08-28T00:15:08.154Z,25.72
2022-08-28T00:15:18.257Z,25.72
2022-08-28T00:15:28.275Z,25.72
2022-08-28T00:15:38.315Z,25.74
2022-08-28T00:15:58.413Z,25.72
2022-08-28T00:16:08.529Z,25.75
2022-08-28T00:16:18.705Z,25.72
2022-08-28T00:16:28.692Z,25.72
2022-08-28T00:16:38.737Z,25.74
2022-08-28T00:16:59.144Z,25.72
2022-08-28T00:17:08.875Z,25.74
2022-08-28T00:17:18.897Z,25.72
2022-08-28T00:17:28.931Z,25.72
2022-08-28T00:17:38.948Z,25.74
2022-08-28T00:17:59.115Z,25.74
2022-08-28T00:18:09.169Z,25.72
2022-08-28T00:18:19.206Z,25.75
2022-08-28T00:18:29.235Z,25.71
2022-08-28T00:18:39.265Z,25.72
2022-08-28T00:18:59.306Z,25.74
2022-08-28T00:19:09.358Z,25.74
2022-08-28T00:19:19.407Z,25.72
2022-08-28T00:19:29.437Z,25.74
2022-08-28T00:19:39.517Z,25.74
2022-08-28T00:19:59.536Z,25.71
2022-08-28T00:20:09.565Z,25.72
2022-08-28T00:20:19.595Z,25.72
2022-08-28T00:20:29.624Z,25.72
2022-08-28T00:20:39.646Z,25.74
2022-08-28T00:20:59.705Z,25.71
2022-08-28T00:21:09.726Z,25.74
2022-08-28T00:21:19.755Z,25.72
2022-08-28T00:21:29.775Z,25.72
2022-08-28T00:21:39.807Z,25.71
2022-08-28T00:21:59.987Z,25.71
2022-08-28T00:22:10.019Z,25.72
2022-08-28T00:22:20.056Z,25.72
2022-08-28T00:22:30.084Z,25.72
2022-08-28T00:22:40.098Z,25.74
2022-08-28T00:23:00.277Z,25.72
2022-08-28T00:23:10.287Z,25.72
2022-08-28T00:23:20.308Z,25.71
2022-08-28T00:23:30.391Z,25.71
2022-08-28T00:23:43.021Z,25.69
2022-08-28T00:24:00.540Z,25.71
2022-08-28T00:24:10.574Z,25.69
2022-08-28T00:24:20.598Z,25.71
2022-08-28T00:24:30.617Z,25.69
2022-08-28T00:24:40.648Z,25.68
2022-08-28T00:25:00.827Z,25.67
2022-08-28T00:25:10.848Z,25.68
2022-08-28T00:25:20.877Z,25.68
2022-08-28T00:25:30.906Z,25.68
2022-08-28T00:25:40.928Z,25.69
2022-08-28T00:26:01.101Z,25.69
2022-08-28T00:26:11.140Z,25.69
2022-08-28T00:26:21.168Z,25.67
2022-08-28T00:26:31.187Z,25.68
2022-08-28T00:26:41.200Z,25.71
2022-08-28T00:26:52.208Z,25.68
2022-08-28T00:27:11.365Z,25.69
2022-08-28T00:27:21.378Z,25.69
2022-08-28T00:27:31.423Z,25.68
2022-08-28T00:27:41.458Z,25.69
2022-08-28T00:28:02.144Z,25.69
2022-08-28T00:28:23.386Z,25.67
2022-08-28T00:28:24.130Z,25.68
2022-08-28T00:28:31.790Z,25.67
2022-08-28T00:28:41.810Z,25.67
2022-08-28T00:28:51.839Z,25.68
2022-08-28T00:29:01.897Z,25.67
2022-08-28T00:29:11.929Z,25.68
2022-08-28T00:29:21.964Z,25.69
2022-08-28T00:29:31.987Z,25.68
2022-08-28T00:29:42.016Z,25.67
2022-08-28T00:29:52.028Z,25.68
2022-08-28T00:30:02.094Z,25.65
2022-08-28T00:30:12.128Z,25.67
2022-08-28T00:30:22.167Z,25.67
2022-08-28T00:30:32.188Z,25.67
2022-08-28T00:30:42.221Z,25.67
2022-08-28T00:30:52.282Z,25.67
2022-08-28T00:31:02.409Z,25.67
2022-08-28T00:31:12.432Z,25.68
2022-08-28T00:31:22.513Z,25.67
2022-08-28T00:31:32.611Z,25.68
2022-08-28T00:31:42.735Z,25.67
2022-08-28T00:31:52.777Z,25.68
2022-08-28T00:32:02.811Z,25.67
2022-08-28T00:32:12.839Z,25.69
2022-08-28T00:32:22.859Z,25.67
2022-08-28T00:32:32.889Z,25.69
2022-08-28T00:32:42.919Z,25.67
2022-08-28T00:32:52.940Z,25.69
2022-08-28T00:33:02.960Z,25.67
2022-08-28T00:33:12.981Z,25.69
2022-08-28T00:33:23.011Z,25.67
2022-08-28T00:33:33.036Z,25.69
2022-08-28T00:33:43.070Z,25.68
2022-08-28T00:33:53.087Z,25.71
2022-08-28T00:34:03.131Z,25.68
2022-08-28T00:34:13.149Z,25.68
2022-08-28T00:34:25.460Z,25.68
2022-08-28T00:34:33.830Z,25.67
2022-08-28T00:34:43.320Z,25.68
2022-08-28T00:34:53.350Z,25.69
2022-08-28T00:35:03.370Z,25.68
2022-08-28T00:35:13.390Z,25.69
2022-08-28T00:35:23.663Z,25.71
2022-08-28T00:35:33.550Z,25.67
2022-08-28T00:35:43.584Z,25.68
2022-08-28T00:35:53.609Z,25.68
2022-08-28T00:36:03.644Z,25.68
2022-08-28T00:36:13.659Z,25.67
2022-08-28T00:36:23.690Z,25.67
2022-08-28T00:36:33.720Z,25.68
2022-08-28T00:36:43.748Z,25.68
2022-08-28T00:36:53.779Z,25.68
2022-08-28T00:37:03.819Z,25.68
2022-08-28T00:37:13.850Z,25.69
2022-08-28T00:37:24.639Z,25.68
2022-08-28T00:37:33.970Z,25.68
2022-08-28T00:37:43.991Z,25.67
2022-08-28T00:37:54.101Z,25.68
2022-08-28T00:38:04.242Z,25.68
2022-08-28T00:38:14.571Z,25.67
2022-08-28T00:38:24.352Z,25.68
2022-08-28T00:38:34.390Z,25.67
2022-08-28T00:38:54.511Z,25.67
2022-08-28T00:39:04.611Z,25.68
2022-08-28T00:39:14.632Z,25.67
2022-08-28T00:39:24.719Z,25.67
2022-08-28T00:39:34.841Z,25.68
2022-08-28T00:39:55.013Z,25.68
2022-08-28T00:40:05.129Z,25.67
2022-08-28T00:40:15.254Z,25.65
2022-08-28T00:40:30.448Z,25.65
2022-08-28T00:40:35.482Z,25.64
2022-08-28T00:40:55.679Z,25.68
2022-08-28T00:41:05.811Z,25.67
2022-08-28T00:41:15.839Z,25.67
2022-08-28T00:41:27.465Z,25.65
2022-08-28T00:41:36.461Z,25.67
2022-08-28T00:41:57.775Z,25.68
2022-08-28T00:42:06.042Z,25.65
2022-08-28T00:42:16.071Z,25.67
2022-08-28T00:42:26.103Z,25.67
2022-08-28T00:42:36.123Z,25.65
2022-08-28T00:42:56.167Z,25.65
2022-08-28T00:43:06.201Z,25.68
2022-08-28T00:43:16.220Z,25.68
2022-08-28T00:43:26.249Z,25.68
2022-08-28T00:43:36.291Z,25.67
2022-08-28T00:43:56.337Z,25.68
2022-08-28T00:44:06.373Z,25.67
2022-08-28T00:44:16.401Z,25.68
2022-08-28T00:44:26.431Z,25.67
2022-08-28T00:44:36.444Z,25.67
2022-08-28T00:44:56.481Z,25.68
2022-08-28T00:45:06.523Z,25.68
2022-08-28T00:45:16.544Z,25.67
2022-08-28T00:45:26.559Z,25.65
2022-08-28T00:45:39.850Z,25.65
2022-08-28T00:45:56.653Z,25.65
2022-08-28T00:46:06.716Z,25.64
2022-08-28T00:46:16.814Z,25.64
2022-08-28T00:46:26.891Z,25.65
2022-08-28T00:46:36.987Z,25.64
2022-08-28T00:46:57.136Z,25.64
2022-08-28T00:47:07.193Z,25.65
2022-08-28T00:47:17.234Z,25.62
2022-08-28T00:47:27.283Z,25.62
2022-08-28T00:47:37.304Z,25.61
2022-08-28T00:47:57.340Z,25.62
2022-08-28T00:48:07.373Z,25.62
2022-08-28T00:48:17.393Z,25.61
2022-08-28T00:48:27.423Z,25.62
2022-08-28T00:48:37.443Z,25.61
2022-08-28T00:48:57.495Z,25.59
2022-08-28T00:49:07.522Z,25.62
2022-08-28T00:49:17.545Z,25.62
2022-08-28T00:49:27.574Z,25.62
2022-08-28T00:49:37.595Z,25.62
2022-08-28T00:49:57.626Z,25.61
2022-08-28T00:50:07.664Z,25.61
2022-08-28T00:50:17.700Z,25.64
2022-08-28T00:50:27.723Z,25.64
2022-08-28T00:50:37.763Z,25.62
2022-08-28T00:51:00.530Z,25.62
2022-08-28T00:51:07.814Z,25.61
2022-08-28T00:51:17.844Z,25.61
2022-08-28T00:51:27.862Z,25.61
2022-08-28T00:51:37.884Z,25.59
2022-08-28T00:51:57.941Z,25.62
2022-08-28T00:52:08.000Z,25.61
2022-08-28T00:52:18.055Z,25.61
2022-08-28T00:52:28.073Z,25.59
2022-08-28T00:52:38.107Z,25.59
2022-08-28T00:52:58.143Z,25.59
2022-08-28T00:53:08.173Z,25.59
2022-08-28T00:53:18.204Z,25.57
2022-08-28T00:53:32.702Z,25.61
2022-08-28T00:53:38.325Z,25.59
2022-08-28T00:53:59.103Z,25.59
2022-08-28T00:54:08.645Z,25.62
2022-08-28T00:54:18.666Z,25.61
2022-08-28T00:54:28.697Z,25.61
2022-08-28T00:54:38.723Z,25.61
2022-08-28T00:54:59.924Z,25.61
2022-08-28T00:55:08.856Z,25.61
2022-08-28T00:55:18.884Z,25.62
2022-08-28T00:55:28.926Z,25.61
2022-08-28T00:55:39.155Z,25.64
2022-08-28T00:55:59.045Z,25.64
2022-08-28T00:56:10.262Z,25.62
2022-08-28T00:56:19.193Z,25.62
2022-08-28T00:56:29.295Z,25.61
2022-08-28T00:56:39.336Z,25.62
2022-08-28T00:56:59.384Z,25.62
2022-08-28T00:57:09.416Z,25.62
2022-08-28T00:57:19.441Z,25.61
2022-08-28T00:57:29.455Z,25.61
2022-08-28T00:57:39.476Z,25.61
2022-08-28T00:57:59.522Z,25.61
2022-08-28T00:58:09.555Z,25.61
2022-08-28T00:58:19.580Z,25.61
2022-08-28T00:58:29.615Z,25.62
2022-08-28T00:58:39.658Z,25.61
2022-08-28T00:58:59.825Z,25.62
2022-08-28T00:59:09.847Z,25.61
2022-08-28T00:59:19.886Z,25.61
2022-08-28T00:59:29.915Z,25.62
2022-08-28T00:59:39.946Z,25.59
2022-08-28T01:00:00.166Z,25.62
2022-08-28T01:00:10.217Z,25.62
2022-08-28T01:00:20.247Z,25.59
2022-08-28T01:00:30.291Z,25.61
2022-08-28T01:00:40.334Z,25.59
2022-08-28T01:01:00.371Z,25.57
2022-08-28T01:01:10.497Z,25.59
2022-08-28T01:01:20.591Z,25.59
2022-08-28T01:01:30.545Z,25.62
2022-08-28T01:01:40.601Z,25.59
2022-08-28T01:02:00.824Z,25.57
2022-08-28T01:02:10.907Z,25.57
2022-08-28T01:02:20.965Z,25.57
2022-08-28T01:02:31.053Z,25.61
2022-08-28T01:02:41.156Z,25.56
2022-08-28T01:03:01.320Z,25.57
2022-08-28T01:03:11.319Z,25.57
2022-08-28T01:03:21.356Z,25.57
2022-08-28T01:03:31.406Z,25.56
2022-08-28T01:03:41.437Z,25.57
2022-08-28T01:04:01.474Z,25.57
2022-08-28T01:04:11.488Z,25.57
2022-08-28T01:04:21.520Z,25.57
2022-08-28T01:04:31.538Z,25.57
2022-08-28T01:04:41.558Z,25.57
2022-08-28T01:04:51.579Z,25.57
2022-08-28T01:05:01.608Z,25.56
2022-08-28T01:05:11.627Z,25.57
2022-08-28T01:05:21.666Z,25.57
2022-08-28T01:05:31.708Z,25.57
2022-08-28T01:05:41.744Z,25.57
2022-08-28T01:05:51.761Z,25.57
2022-08-28T01:06:01.786Z,25.56
2022-08-28T01:06:11.808Z,25.57
2022-08-28T01:06:21.837Z,25.56
2022-08-28T01:06:31.865Z,25.53
2022-08-28T01:06:41.899Z,25.56
2022-08-28T01:06:51.935Z,25.56
2022-08-28T01:07:01.956Z,25.56
2022-08-28T01:07:11.968Z,25.56
2022-08-28T01:07:22.007Z,25.54
2022-08-28T01:07:32.037Z,25.54
2022-08-28T01:07:42.058Z,25.56
2022-08-28T01:07:52.088Z,25.56
2022-08-28T01:08:02.118Z,25.54
2022-08-28T01:08:12.392Z,25.54
2022-08-28T01:08:22.948Z,25.54
2022-08-28T01:08:32.239Z,25.54
2022-08-28T01:08:42.259Z,25.56
2022-08-28T01:08:52.278Z,25.54
2022-08-28T01:09:02.306Z,25.56
2022-08-28T01:09:12.319Z,25.56
2022-08-28T01:09:22.347Z,25.57
2022-08-28T01:09:32.380Z,25.54
2022-08-28T01:09:42.400Z,25.57
2022-08-28T01:09:52.431Z,25.54
2022-08-28T01:10:02.460Z,25.56
2022-08-28T01:10:12.499Z,25.54
2022-08-28T01:10:22.529Z,25.56
2022-08-28T01:10:32.550Z,25.54
2022-08-28T01:10:42.579Z,25.56
2022-08-28T01:10:52.601Z,25.56
2022-08-28T01:11:02.630Z,25.56
2022-08-28T01:11:12.655Z,25.53
2022-08-28T01:11:22.680Z,25.56
2022-08-28T01:11:32.708Z,25.53
2022-08-28T01:11:42.738Z,25.54
2022-08-28T01:11:52.760Z,25.56
2022-08-28T01:12:02.787Z,25.56
2022-08-28T01:12:12.809Z,25.54
2022-08-28T01:12:22.839Z,25.54
2022-08-28T01:12:32.867Z,25.54
2022-08-28T01:12:42.900Z,25.56
2022-08-28T01:12:52.930Z,25.54
2022-08-28T01:13:02.958Z,25.56
2022-08-28T01:13:12.990Z,25.54
2022-08-28T01:13:23.038Z,25.54
2022-08-28T01:13:33.070Z,25.54
2022-08-28T01:13:43.101Z,25.54
2022-08-28T01:13:53.152Z,25.54
2022-08-28T01:14:03.320Z,25.54
2022-08-28T01:14:13.211Z,25.53
2022-08-28T01:14:23.276Z,25.53
2022-08-28T01:14:33.295Z,25.53
2022-08-28T01:14:43.296Z,25.53
2022-08-28T01:14:53.320Z,25.52
2022-08-28T01:15:03.350Z,25.53
2022-08-28T01:15:14.044Z,25.56
2022-08-28T01:15:23.570Z,25.53
2022-08-28T01:15:33.685Z,25.54
2022-08-28T01:15:43.661Z,25.53
2022-08-28T01:15:53.750Z,25.53
2022-08-28T01:16:03.917Z,25.53
2022-08-28T01:16:13.855Z,25.53
2022-08-28T01:16:29.283Z,25.53
2022-08-28T01:16:34.523Z,25.53
2022-08-28T01:16:54.060Z,25.52
2022-08-28T01:17:04.090Z,25.52
2022-08-28T01:17:14.120Z,25.53
2022-08-28T01:17:24.149Z,25.53
2022-08-28T01:17:34.172Z,25.53
2022-08-28T01:17:54.220Z,25.52
2022-08-28T01:18:08.099Z,25.52
2022-08-28T01:18:14.481Z,25.53
2022-08-28T01:18:24.419Z,25.52
2022-08-28T01:18:34.430Z,25.54
2022-08-28T01:18:54.601Z,25.54
2022-08-28T01:19:04.658Z,25.53
2022-08-28T01:19:14.690Z,25.53
2022-08-28T01:19:24.741Z,25.53
2022-08-28T01:19:34.769Z,25.54
2022-08-28T01:19:54.933Z,25.54
2022-08-28T01:20:04.972Z,25.52
2022-08-28T01:20:14.990Z,25.53
2022-08-28T01:20:25.021Z,25.53
2022-08-28T01:20:35.039Z,25.54
2022-08-28T01:20:55.202Z,25.54
2022-08-28T01:21:05.231Z,25.54
2022-08-28T01:21:16.858Z,25.53
2022-08-28T01:21:25.372Z,25.52
2022-08-28T01:21:35.401Z,25.52
2022-08-28T01:21:55.423Z,25.53
2022-08-28T01:22:05.452Z,25.52
2022-08-28T01:22:15.473Z,25.52
2022-08-28T01:22:25.502Z,25.50
2022-08-28T01:22:35.529Z,25.52
2022-08-28T01:22:55.560Z,25.52
2022-08-28T01:23:05.596Z,25.52
2022-08-28T01:23:15.619Z,25.52
2022-08-28T01:23:25.640Z,25.53
2022-08-28T01:23:35.667Z,25.53
2022-08-28T01:23:55.702Z,25.53
2022-08-28T01:24:05.732Z,25.53
2022-08-28T01:24:15.773Z,25.54
2022-08-28T01:24:25.803Z,25.52
2022-08-28T01:24:35.833Z,25.53
2022-08-28T01:24:55.887Z,25.54
2022-08-28T01:25:05.924Z,25.53
2022-08-28T01:25:15.943Z,25.53
2022-08-28T01:25:25.982Z,25.52
2022-08-28T01:25:36.023Z,25.54
2022-08-28T01:25:56.181Z,25.53
2022-08-28T01:26:10.954Z,25.54
2022-08-28T01:26:16.323Z,25.52
2022-08-28T01:26:26.363Z,25.53
2022-08-28T01:26:36.404Z,25.53
2022-08-28T01:26:56.490Z,25.52
2022-08-28T01:27:06.522Z,25.53
2022-08-28T01:27:16.562Z,25.52
2022-08-28T01:27:26.572Z,25.52
2022-08-28T01:27:36.602Z,25.52
2022-08-28T01:27:56.633Z,25.52
2022-08-28T01:28:06.665Z,25.52
2022-08-28T01:28:16.697Z,25.50
2022-08-28T01:28:26.722Z,25.50
2022-08-28T01:28:36.751Z,25.50
2022-08-28T01:28:56.774Z,25.50
2022-08-28T01:29:06.803Z,25.52
2022-08-28T01:29:16.836Z,25.52
2022-08-28T01:29:26.864Z,25.50
2022-08-28T01:29:36.893Z,25.52
2022-08-28T01:29:56.944Z,25.52
2022-08-28T01:30:06.985Z,25.50
2022-08-28T01:30:17.012Z,25.52
2022-08-28T01:30:27.040Z,25.50
2022-08-28T01:30:37.070Z,25.52
2022-08-28T01:30:57.193Z,25.52
2022-08-28T01:31:07.250Z,25.50
2022-08-28T01:31:17.347Z,25.53
2022-08-28T01:31:27.420Z,25.52
2022-08-28T01:31:37.563Z,25.50
2022-08-28T01:31:57.635Z,25.50
2022-08-28T01:32:07.675Z,25.49
2022-08-28T01:32:17.742Z,25.49
2022-08-28T01:32:27.785Z,25.49
2022-08-28T01:32:37.814Z,25.52
2022-08-28T01:32:57.854Z,25.49
2022-08-28T01:33:07.883Z,25.49
2022-08-28T01:33:17.935Z,25.50
2022-08-28T01:33:28.375Z,25.47
2022-08-28T01:33:37.985Z,25.49
2022-08-28T01:33:58.014Z,25.49
2022-08-28T01:34:08.054Z,25.47
2022-08-28T01:34:18.105Z,25.50
2022-08-28T01:34:28.143Z,25.47
2022-08-28T01:34:38.167Z,25.50
2022-08-28T01:34:58.265Z,25.49
2022-08-28T01:35:08.301Z,25.49
2022-08-28T01:35:18.327Z,25.49
2022-08-28T01:35:28.365Z,25.49
2022-08-28T01:35:38.395Z,25.52
2022-08-28T01:35:58.563Z,25.49
2022-08-28T01:36:08.610Z,25.50
2022-08-28T01:36:18.655Z,25.50
2022-08-28T01:36:28.674Z,25.47
2022-08-28T01:36:38.706Z,25.52
2022-08-28T01:36:58.737Z,25.49
2022-08-28T01:37:08.808Z,25.47
2022-08-28T01:37:18.826Z,25.46
2022-08-28T01:37:28.851Z,25.49
2022-08-28T01:37:38.866Z,25.49
2022-08-28T01:37:58.925Z,25.47
2022-08-28T01:38:08.998Z,25.47
2022-08-28T01:38:19.347Z,25.46
2022-08-28T01:38:29.036Z,25.47
2022-08-28T01:38:39.065Z,25.49
2022-08-28T01:38:59.264Z,25.49
2022-08-28T01:39:09.285Z,25.47
2022-08-28T01:39:19.336Z,25.47
2022-08-28T01:39:29.357Z,25.46
2022-08-28T01:39:39.395Z,25.47
2022-08-28T01:39:59.482Z,25.47
2022-08-28T01:40:09.535Z,25.47
2022-08-28T01:40:19.641Z,25.46
2022-08-28T01:40:29.706Z,25.47
2022-08-28T01:40:39.777Z,25.46
2022-08-28T01:40:59.824Z,25.50
2022-08-28T01:41:09.836Z,25.47
2022-08-28T01:41:19.895Z,25.47
2022-08-28T01:41:29.916Z,25.47
2022-08-28T01:41:39.947Z,25.49
2022-08-28T01:42:00.008Z,25.49
2022-08-28T01:42:10.036Z,25.49
2022-08-28T01:42:20.068Z,25.49
2022-08-28T01:42:30.098Z,25.49
2022-08-28T01:42:40.126Z,25.49
2022-08-28T01:43:00.156Z,25.49
2022-08-28T01:43:10.174Z,25.49
2022-08-28T01:43:20.197Z,25.49
2022-08-28T01:43:30.216Z,25.49
2022-08-28T01:43:40.248Z,25.47
2022-08-28T01:44:00.279Z,25.49
2022-08-28T01:44:10.287Z,25.50
2022-08-28T01:44:20.316Z,25.50
2022-08-28T01:44:30.338Z,25.49
2022-08-28T01:44:40.359Z,25.49
2022-08-28T01:45:00.396Z,25.47
2022-08-28T01:45:10.417Z,25.49
2022-08-28T01:45:20.437Z,25.49
2022-08-28T01:45:30.448Z,25.46
2022-08-28T01:45:40.486Z,25.46
2022-08-28T01:46:00.557Z,25.49
2022-08-28T01:46:10.652Z,25.46
2022-08-28T01:46:20.777Z,25.46
2022-08-28T01:46:30.873Z,25.46
2022-08-28T01:46:41.014Z,25.47
2022-08-28T01:47:00.967Z,25.47
2022-08-28T01:47:10.997Z,25.46
2022-08-28T01:47:21.025Z,25.47
2022-08-28T01:47:31.045Z,25.46
2022-08-28T01:47:41.071Z,25.46
2022-08-28T01:48:01.238Z,25.47
2022-08-28T01:48:11.487Z,25.44
2022-08-28T01:48:21.379Z,25.46
2022-08-28T01:48:31.405Z,25.47
2022-08-28T01:48:41.428Z,25.47
2022-08-28T01:49:01.600Z,25.49
2022-08-28T01:49:11.628Z,25.44
2022-08-28T01:49:21.659Z,25.44
2022-08-28T01:49:31.700Z,25.46
2022-08-28T01:49:41.717Z,25.49
2022-08-28T01:49:51.739Z,25.46
2022-08-28T01:50:01.766Z,25.46
2022-08-28T01:50:11.809Z,25.44
2022-08-28T01:50:21.830Z,25.46
2022-08-28T01:50:31.848Z,25.44
2022-08-28T01:50:41.866Z,25.47
2022-08-28T01:50:51.888Z,25.46
2022-08-28T01:51:01.955Z,25.47
2022-08-28T01:51:11.979Z,25.47
2022-08-28T01:51:24.637Z,25.47
2022-08-28T01:51:35.224Z,25.44
2022-08-28T01:51:42.189Z,25.44
2022-08-28T01:51:52.325Z,25.46
2022-08-28T01:52:03.435Z,25.44
2022-08-28T01:52:12.319Z,25.46
2022-08-28T01:52:26.354Z,25.44
2022-08-28T01:52:32.359Z,25.44
2022-08-28T01:52:42.528Z,25.46
2022-08-28T01:52:52.526Z,25.46
2022-08-28T01:53:02.549Z,25.47
2022-08-28T01:53:12.627Z,25.46
2022-08-28T01:53:24.974Z,25.46
2022-08-28T01:53:33.198Z,25.44
2022-08-28T01:53:45.025Z,25.44
2022-08-28T01:53:52.799Z,25.43
2022-08-28T01:54:02.821Z,25.46
2022-08-28T01:54:12.869Z,25.44
2022-08-28T01:54:22.900Z,25.44
2022-08-28T01:54:32.919Z,25.46
2022-08-28T01:54:53.127Z,25.46
2022-08-28T01:55:05.218Z,25.44
2022-08-28T01:55:13.371Z,25.46
2022-08-28T01:55:23.470Z,25.44
2022-08-28T01:55:33.512Z,25.46
2022-08-28T01:55:53.742Z,25.44
2022-08-28T01:56:04.676Z,25.44
2022-08-28T01:56:13.873Z,25.43
2022-08-28T01:56:23.899Z,25.46
2022-08-28T01:56:33.922Z,25.44
2022-08-28T01:56:53.950Z,25.44
2022-08-28T01:57:03.980Z,25.44
2022-08-28T01:57:14.001Z,25.43
2022-08-28T01:57:24.033Z,25.44
2022-08-28T01:57:34.060Z,25.43
2022-08-28T01:57:54.128Z,25.46
2022-08-28T01:58:04.142Z,25.43
2022-08-28T01:58:14.413Z,25.43
2022-08-28T01:58:24.241Z,25.43
2022-08-28T01:58:38.071Z,25.46
2022-08-28T01:58:54.395Z,25.44
2022-08-28T01:59:04.422Z,25.43
2022-08-28T01:59:14.451Z,25.43
2022-08-28T01:59:24.491Z,25.43
2022-08-28T01:59:34.514Z,25.44
2022-08-28T01:59:54.554Z,25.43
2022-08-28T02:00:04.582Z,25.43
2022-08-28T02:00:14.610Z,25.42
2022-08-28T02:00:24.644Z,25.43
2022-08-28T02:00:34.662Z,25.43
2022-08-28T02:00:54.841Z,25.42
2022-08-28T02:01:04.872Z,25.42
2022-08-28T02:01:14.941Z,25.43
2022-08-28T02:01:25.049Z,25.43
2022-08-28T02:01:35.092Z,25.44
2022-08-28T02:01:55.377Z,25.39
2022-08-28T02:02:05.410Z,25.44
2022-08-28T02:02:15.472Z,25.43
2022-08-28T02:02:25.499Z,25.43
2022-08-28T02:02:35.521Z,25.43
2022-08-28T02:02:55.686Z,25.44
2022-08-28T02:03:05.712Z,25.44
2022-08-28T02:03:15.732Z,25.43
2022-08-28T02:03:25.769Z,25.43
2022-08-28T02:03:35.781Z,25.42
2022-08-28T02:03:55.860Z,25.42
2022-08-28T02:04:05.973Z,25.42
2022-08-28T02:04:15.970Z,25.42
2022-08-28T02:04:31.765Z,25.42
2022-08-28T02:04:36.153Z,25.42
2022-08-28T02:04:56.245Z,25.39
2022-08-28T02:05:06.262Z,25.42
2022-08-28T02:05:16.283Z,25.39
2022-08-28T02:05:26.313Z,25.42
2022-08-28T02:05:36.344Z,25.42
2022-08-28T02:05:56.372Z,25.42
2022-08-28T02:06:06.403Z,25.39
2022-08-28T02:06:16.431Z,25.42
2022-08-28T02:06:26.467Z,25.39
2022-08-28T02:06:36.483Z,25.42
2022-08-28T02:06:56.522Z,25.43
2022-08-28T02:07:06.552Z,25.38
2022-08-28T02:07:16.576Z,25.42
2022-08-28T02:07:26.603Z,25.42
2022-08-28T02:07:36.649Z,25.38
2022-08-28T02:07:56.705Z,25.39
2022-08-28T02:08:06.712Z,25.39
2022-08-28T02:08:16.735Z,25.42
2022-08-28T02:08:26.763Z,25.39
2022-08-28T02:08:36.775Z,25.39
2022-08-28T02:08:56.946Z,25.38
2022-08-28T02:09:06.976Z,25.37
2022-08-28T02:09:17.083Z,25.38
2022-08-28T02:09:27.122Z,25.38
2022-08-28T02:09:37.141Z,25.39
2022-08-28T02:09:57.322Z,25.39
2022-08-28T02:10:07.363Z,25.38
2022-08-28T02:10:17.383Z,25.39
2022-08-28T02:10:27.414Z,25.38
2022-08-28T02:10:37.535Z,25.35
2022-08-28T02:10:57.705Z,25.38
2022-08-28T02:11:07.742Z,25.35
2022-08-28T02:11:17.764Z,25.37
2022-08-28T02:11:27.803Z,25.37
2022-08-28T02:11:37.824Z,25.37
2022-08-28T02:11:57.847Z,25.37
2022-08-28T02:12:08.005Z,25.38
2022-08-28T02:12:17.886Z,25.37
2022-08-28T02:12:27.904Z,25.35
2022-08-28T02:12:37.925Z,25.38
2022-08-28T02:12:59.021Z,25.37
2022-08-28T02:13:08.143Z,25.39
2022-08-28T02:13:18.164Z,25.37
2022-08-28T02:13:28.196Z,25.37
2022-08-28T02:13:38.214Z,25.39
2022-08-28T02:13:58.248Z,25.38
2022-08-28T02:14:08.365Z,25.38
2022-08-28T02:14:18.396Z,25.39
2022-08-28T02:14:28.425Z,25.39
2022-08-28T02:14:38.444Z,25.38
2022-08-28T02:14:58.485Z,25.38
2022-08-28T02:15:08.525Z,25.37
2022-08-28T02:15:18.548Z,25.38
2022-08-28T02:15:28.729Z,25.38
2022-08-28T02:15:38.871Z,25.38
2022-08-28T02:15:59.103Z,25.37
2022-08-28T02:16:09.194Z,25.38
2022-08-28T02:16:19.321Z,25.35
2022-08-28T02:16:29.363Z,25.35
2022-08-28T02:16:39.396Z,25.37
2022-08-28T02:16:59.556Z,25.37
2022-08-28T02:17:09.587Z,25.37
2022-08-28T02:17:19.627Z,25.37
2022-08-28T02:17:29.646Z,25.35
2022-08-28T02:17:39.667Z,25.35
2022-08-28T02:17:59.717Z,25.35
2022-08-28T02:18:09.890Z,25.35
2022-08-28T02:18:19.846Z,25.35
2022-08-28T02:18:29.875Z,25.37
2022-08-28T02:18:39.901Z,25.37
2022-08-28T02:19:00.594Z,25.37
2022-08-28T02:19:10.205Z,25.35
2022-08-28T02:19:20.247Z,25.37
2022-08-28T02:19:30.276Z,25.35
2022-08-28T02:19:40.316Z,25.37
2022-08-28T02:20:00.363Z,25.35
2022-08-28T02:20:10.437Z,25.35
2022-08-28T02:20:20.456Z,25.37
2022-08-28T02:20:30.488Z,25.34
2022-08-28T02:20:40.517Z,25.35
2022-08-28T02:21:00.702Z,25.35
2022-08-28T02:21:10.719Z,25.34
2022-08-28T02:21:20.747Z,25.34
2022-08-28T02:21:30.776Z,25.31
2022-08-28T02:21:40.805Z,25.32
2022-08-28T02:22:00.988Z,25.32
2022-08-28T02:22:11.054Z,25.32
2022-08-28T02:22:21.079Z,25.34
2022-08-28T02:22:31.132Z,25.34
2022-08-28T02:22:41.147Z,25.32
2022-08-28T02:23:01.319Z,25.31
2022-08-28T02:23:11.342Z,25.32
2022-08-28T02:23:21.377Z,25.31
2022-08-28T02:23:31.407Z,25.32
2022-08-28T02:23:41.438Z,25.32
2022-08-28T02:24:01.477Z,25.30
2022-08-28T02:24:11.498Z,25.31
2022-08-28T02:24:21.548Z,25.31
2022-08-28T02:24:31.577Z,25.31
2022-08-28T02:24:41.607Z,25.30
2022-08-28T02:24:51.637Z,25.31
2022-08-28T02:25:01.675Z,25.32
2022-08-28T02:25:11.697Z,25.30
2022-08-28T02:25:21.727Z,25.30
2022-08-28T02:25:31.767Z,25.30
2022-08-28T02:25:41.821Z,25.30
2022-08-28T02:25:51.848Z,25.30
2022-08-28T02:26:01.878Z,25.30
2022-08-28T02:26:11.899Z,25.30
2022-08-28T02:26:21.925Z,25.30
2022-08-28T02:26:31.949Z,25.30
2022-08-28T02:26:41.987Z,25.30
2022-08-28T02:26:52.018Z,25.31
2022-08-28T02:27:02.056Z,25.27
2022-08-28T02:27:12.069Z,25.28
2022-08-28T02:27:22.096Z,25.30
2022-08-28T02:27:32.121Z,25.31
2022-08-28T02:27:42.149Z,25.30
2022-08-28T02:27:52.176Z,25.30
2022-08-28T02:28:02.210Z,25.28
2022-08-28T02:28:12.360Z,25.30
2022-08-28T02:28:22.338Z,25.28
2022-08-28T02:28:32.383Z,25.32